sensor_id;sensor_type;location;lat;lon;timestamp;P1;durP1;ratioP1;P2;durP2;ratioP2
72882;SDS011;61017;37.812;-122.286;2023-04-24T00:00:49;11.77;;;2.78;;
72882;SDS011;61017;37.812;-122.286;2023-04-24T00:02:20;18.35;;;3.80;;
72882;SDS011;61017;37.812;-122.286;2023-04-24T00:03:52;14.52;;;3.50;;
72882;SDS011;61017;37.812;-122.286;2023-04-24T00:05:24;18.42;;;3.28;;
72882;SDS011;61017;37.812;-122.286;2023-04-24T00:06:55;12.13;;;2.90;;
72882;SDS011;61017;37.812;-122.286;2023-04-24T00:08:27;11.90;;;2.95;;
72882;SDS011;61017;37.812;-122.286;2023-04-24T00:09:59;11.18;;;2.92;;
72882;SDS011;61017;37.812;-122.286;2023-04-24T00:11:31;13.40;;;3.00;;
72882;SDS011;61017;37.812;-122.286;2023-04-24T00:13:03;15.68;;;3.22;;
72882;SDS011;61017;37.812;-122.286;2023-04-24T00:14:34;14.82;;;3.17;;
72882;SDS011;61017;37.812;-122.286;2023-04-24T00:16:06;14.65;;;2.90;;
72882;SDS011;61017;37.812;-122.286;2023-04-24T00:17:38;14.35;;;2.88;;
72882;SDS011;61017;37.812;-122.286;2023-04-24T00:19:09;11.88;;;2.55;;
72882;SDS011;61017;37.812;-122.286;2023-04-24T00:20:41;18.23;;;3.00;;
72882;SDS011;61017;37.812;-122.286;2023-04-24T00:22:12;15.98;;;3.65;;
72882;SDS011;61017;37.812;-122.286;2023-04-24T00:23:44;14.25;;;3.42;;
72882;SDS011;61017;37.812;-122.286;2023-04-24T00:25:16;16.65;;;3.55;;
72882;SDS011;61017;37.812;-122.286;2023-04-24T00:26:47;13.38;;;3.28;;
72882;SDS011;61017;37.812;-122.286;2023-04-24T00:28:20;13.05;;;2.97;;
72882;SDS011;61017;37.812;-122.286;2023-04-24T00:29:51;11.35;;;2.70;;
72882;SDS011;61017;37.812;-122.286;2023-04-24T00:31:23;13.18;;;3.10;;
72882;SDS011;61017;37.812;-122.286;2023-04-24T00:32:55;10.77;;;2.60;;
72882;SDS011;61017;37.812;-122.286;2023-04-24T00:34:26;16.35;;;3.08;;
72882;SDS011;61017;37.812;-122.286;2023-04-24T00:35:58;14.48;;;2.92;;
72882;SDS011;61017;37.812;-122.286;2023-04-24T00:37:29;13.27;;;3.25;;
72882;SDS011;61017;37.812;-122.286;2023-04-24T00:39:01;15.68;;;3.10;;
72882;SDS011;61017;37.812;-122.286;2023-04-24T00:40:32;14.38;;;2.63;;
72882;SDS011;61017;37.812;-122.286;2023-04-24T00:42:04;12.57;;;3.08;;
72882;SDS011;61017;37.812;-122.286;2023-04-24T00:43:37;17.02;;;3.15;;
72882;SDS011;61017;37.812;-122.286;2023-04-24T00:45:09;16.05;;;3.38;;
72882;SDS011;61017;37.812;-122.286;2023-04-24T00:46:41;14.55;;;3.10;;
72882;SDS011;61017;37.812;-122.286;2023-04-24T00:48:13;16.17;;;3.20;;
72882;SDS011;61017;37.812;-122.286;2023-04-24T00:49:45;14.52;;;2.83;;
72882;SDS011;61017;37.812;-122.286;2023-04-24T00:51:17;17.25;;;2.95;;
72882;SDS011;61017;37.812;-122.286;2023-04-24T00:52:49;11.55;;;2.95;;
72882;SDS011;61017;37.812;-122.286;2023-04-24T00:54:20;17.90;;;3.17;;
72882;SDS011;61017;37.812;-122.286;2023-04-24T00:55:52;16.80;;;3.50;;
72882;SDS011;61017;37.812;-122.286;2023-04-24T00:57:24;21.00;;;4.13;;
72882;SDS011;61017;37.812;-122.286;2023-04-24T00:58:56;24.33;;;4.38;;
72882;SDS011;61017;37.812;-122.286;2023-04-24T01:00:29;17.48;;;3.80;;
72882;SDS011;61017;37.812;-122.286;2023-04-24T01:02:04;19.25;;;3.58;;
72882;SDS011;61017;37.812;-122.286;2023-04-24T01:03:36;14.75;;;3.40;;
72882;SDS011;61017;37.812;-122.286;2023-04-24T01:05:09;20.10;;;3.60;;
72882;SDS011;61017;37.812;-122.286;2023-04-24T01:06:41;15.07;;;3.50;;
72882;SDS011;61017;37.812;-122.286;2023-04-24T01:08:14;14.50;;;3.33;;
72882;SDS011;61017;37.812;-122.286;2023-04-24T01:09:45;14.30;;;3.30;;
72882;SDS011;61017;37.812;-122.286;2023-04-24T01:11:19;16.67;;;3.90;;
72882;SDS011;61017;37.812;-122.286;2023-04-24T01:12:52;17.95;;;3.38;;
72882;SDS011;61017;37.812;-122.286;2023-04-24T01:14:24;17.92;;;3.78;;
72882;SDS011;61017;37.812;-122.286;2023-04-24T01:15:56;15.77;;;3.45;;
72882;SDS011;61017;37.812;-122.286;2023-04-24T01:17:28;12.18;;;3.20;;
72882;SDS011;61017;37.812;-122.286;2023-04-24T01:18:59;16.00;;;3.58;;
72882;SDS011;61017;37.812;-122.286;2023-04-24T01:20:31;16.00;;;3.38;;
72882;SDS011;61017;37.812;-122.286;2023-04-24T01:22:08;14.32;;;3.30;;
72882;SDS011;61017;37.812;-122.286;2023-04-24T01:23:54;16.65;;;3.42;;
72882;SDS011;61017;37.812;-122.286;2023-04-24T01:25:26;17.70;;;3.60;;
72882;SDS011;61017;37.812;-122.286;2023-04-24T01:26:59;18.10;;;3.58;;
72882;SDS011;61017;37.812;-122.286;2023-04-24T01:28:31;20.02;;;3.60;;
72882;SDS011;61017;37.812;-122.286;2023-04-24T01:30:02;14.82;;;3.42;;
72882;SDS011;61017;37.812;-122.286;2023-04-24T01:31:34;13.67;;;3.23;;
72882;SDS011;61017;37.812;-122.286;2023-04-24T01:33:07;18.85;;;3.92;;
72882;SDS011;61017;37.812;-122.286;2023-04-24T01:34:59;17.08;;;4.00;;
72882;SDS011;61017;37.812;-122.286;2023-04-24T01:36:30;16.65;;;4.07;;
72882;SDS011;61017;37.812;-122.286;2023-04-24T01:38:03;14.27;;;3.42;;
72882;SDS011;61017;37.812;-122.286;2023-04-24T01:39:35;17.67;;;3.22;;
72882;SDS011;61017;37.812;-122.286;2023-04-24T01:41:07;16.08;;;3.22;;
72882;SDS011;61017;37.812;-122.286;2023-04-24T01:42:40;17.40;;;3.80;;
72882;SDS011;61017;37.812;-122.286;2023-04-24T01:44:12;14.70;;;3.63;;
72882;SDS011;61017;37.812;-122.286;2023-04-24T01:45:44;11.00;;;3.10;;
72882;SDS011;61017;37.812;-122.286;2023-04-24T01:47:16;16.58;;;4.00;;
72882;SDS011;61017;37.812;-122.286;2023-04-24T01:49:03;17.15;;;4.05;;
72882;SDS011;61017;37.812;-122.286;2023-04-24T01:50:38;15.32;;;3.50;;
72882;SDS011;61017;37.812;-122.286;2023-04-24T01:52:10;18.65;;;3.90;;
72882;SDS011;61017;37.812;-122.286;2023-04-24T01:53:41;9.35;;;2.90;;
72882;SDS011;61017;37.812;-122.286;2023-04-24T01:55:13;16.63;;;3.95;;
72882;SDS011;61017;37.812;-122.286;2023-04-24T01:56:45;14.50;;;3.67;;
72882;SDS011;61017;37.812;-122.286;2023-04-24T01:58:17;17.33;;;4.00;;
72882;SDS011;61017;37.812;-122.286;2023-04-24T01:59:48;13.75;;;3.67;;
72882;SDS011;61017;37.812;-122.286;2023-04-24T02:01:21;11.55;;;3.03;;
72882;SDS011;61017;37.812;-122.286;2023-04-24T02:02:54;13.80;;;3.25;;
72882;SDS011;61017;37.812;-122.286;2023-04-24T02:04:26;18.42;;;3.65;;
72882;SDS011;61017;37.812;-122.286;2023-04-24T02:05:58;13.35;;;3.65;;
72882;SDS011;61017;37.812;-122.286;2023-04-24T02:07:29;13.75;;;3.40;;
72882;SDS011;61017;37.812;-122.286;2023-04-24T02:09:01;14.40;;;3.63;;
72882;SDS011;61017;37.812;-122.286;2023-04-24T02:10:33;15.32;;;3.47;;
72882;SDS011;61017;37.812;-122.286;2023-04-24T02:12:04;13.48;;;3.38;;
72882;SDS011;61017;37.812;-122.286;2023-04-24T02:13:36;12.07;;;3.38;;
72882;SDS011;61017;37.812;-122.286;2023-04-24T02:15:08;13.02;;;3.38;;
72882;SDS011;61017;37.812;-122.286;2023-04-24T02:16:40;14.53;;;3.93;;
72882;SDS011;61017;37.812;-122.286;2023-04-24T02:18:11;10.75;;;3.00;;
72882;SDS011;61017;37.812;-122.286;2023-04-24T02:19:43;12.93;;;2.88;;
72882;SDS011;61017;37.812;-122.286;2023-04-24T02:21:14;14.35;;;3.53;;
72882;SDS011;61017;37.812;-122.286;2023-04-24T02:22:49;15.85;;;3.40;;
72882;SDS011;61017;37.812;-122.286;2023-04-24T02:24:21;13.32;;;3.33;;
72882;SDS011;61017;37.812;-122.286;2023-04-24T02:25:53;12.38;;;3.55;;
72882;SDS011;61017;37.812;-122.286;2023-04-24T02:27:24;14.18;;;3.58;;
72882;SDS011;61017;37.812;-122.286;2023-04-24T02:28:56;11.85;;;3.33;;
72882;SDS011;61017;37.812;-122.286;2023-04-24T02:30:28;11.98;;;3.55;;
72882;SDS011;61017;37.812;-122.286;2023-04-24T02:31:59;12.57;;;3.65;;
72882;SDS011;61017;37.812;-122.286;2023-04-24T02:33:34;11.80;;;3.13;;
72882;SDS011;61017;37.812;-122.286;2023-04-24T02:35:06;12.02;;;3.20;;
72882;SDS011;61017;37.812;-122.286;2023-04-24T02:36:38;14.85;;;4.10;;
72882;SDS011;61017;37.812;-122.286;2023-04-24T02:38:09;14.02;;;3.75;;
72882;SDS011;61017;37.812;-122.286;2023-04-24T02:39:41;18.33;;;3.53;;
72882;SDS011;61017;37.812;-122.286;2023-04-24T02:41:12;11.10;;;3.30;;
72882;SDS011;61017;37.812;-122.286;2023-04-24T02:42:44;11.90;;;3.20;;
72882;SDS011;61017;37.812;-122.286;2023-04-24T02:44:18;13.00;;;3.42;;
72882;SDS011;61017;37.812;-122.286;2023-04-24T02:45:50;14.82;;;4.00;;
72882;SDS011;61017;37.812;-122.286;2023-04-24T02:47:22;12.23;;;3.40;;
72882;SDS011;61017;37.812;-122.286;2023-04-24T02:48:53;9.85;;;3.30;;
72882;SDS011;61017;37.812;-122.286;2023-04-24T02:50:30;12.13;;;3.40;;
72882;SDS011;61017;37.812;-122.286;2023-04-24T02:52:04;13.18;;;3.50;;
72882;SDS011;61017;37.812;-122.286;2023-04-24T02:53:37;13.63;;;3.22;;
72882;SDS011;61017;37.812;-122.286;2023-04-24T02:55:09;13.82;;;3.40;;
72882;SDS011;61017;37.812;-122.286;2023-04-24T02:56:40;14.80;;;3.50;;
72882;SDS011;61017;37.812;-122.286;2023-04-24T02:58:12;11.85;;;3.15;;
72882;SDS011;61017;37.812;-122.286;2023-04-24T02:59:43;16.10;;;3.60;;
72882;SDS011;61017;37.812;-122.286;2023-04-24T03:01:15;10.73;;;3.10;;
72882;SDS011;61017;37.812;-122.286;2023-04-24T03:02:47;11.13;;;3.28;;
72882;SDS011;61017;37.812;-122.286;2023-04-24T03:04:18;12.00;;;3.20;;
72882;SDS011;61017;37.812;-122.286;2023-04-24T03:05:50;13.02;;;3.60;;
72882;SDS011;61017;37.812;-122.286;2023-04-24T03:07:22;13.00;;;3.53;;
72882;SDS011;61017;37.812;-122.286;2023-04-24T03:08:53;11.90;;;3.22;;
72882;SDS011;61017;37.812;-122.286;2023-04-24T03:10:26;11.75;;;3.40;;
72882;SDS011;61017;37.812;-122.286;2023-04-24T03:11:57;12.63;;;3.30;;
72882;SDS011;61017;37.812;-122.286;2023-04-24T03:13:29;10.98;;;3.28;;
72882;SDS011;61017;37.812;-122.286;2023-04-24T03:15:01;13.05;;;3.20;;
72882;SDS011;61017;37.812;-122.286;2023-04-24T03:16:33;11.90;;;3.00;;
72882;SDS011;61017;37.812;-122.286;2023-04-24T03:18:04;10.63;;;3.53;;
72882;SDS011;61017;37.812;-122.286;2023-04-24T03:19:36;11.95;;;3.30;;
72882;SDS011;61017;37.812;-122.286;2023-04-24T03:21:07;13.68;;;3.65;;
72882;SDS011;61017;37.812;-122.286;2023-04-24T03:22:39;12.55;;;3.17;;
72882;SDS011;61017;37.812;-122.286;2023-04-24T03:24:11;12.18;;;3.15;;
72882;SDS011;61017;37.812;-122.286;2023-04-24T03:25:42;11.63;;;3.30;;
72882;SDS011;61017;37.812;-122.286;2023-04-24T03:27:14;11.55;;;3.25;;
72882;SDS011;61017;37.812;-122.286;2023-04-24T03:28:45;14.15;;;3.33;;
72882;SDS011;61017;37.812;-122.286;2023-04-24T03:30:17;12.05;;;3.30;;
72882;SDS011;61017;37.812;-122.286;2023-04-24T03:31:48;12.60;;;3.40;;
72882;SDS011;61017;37.812;-122.286;2023-04-24T03:33:20;14.23;;;3.63;;
72882;SDS011;61017;37.812;-122.286;2023-04-24T03:34:54;12.93;;;3.08;;
72882;SDS011;61017;37.812;-122.286;2023-04-24T03:36:30;14.35;;;3.80;;
72882;SDS011;61017;37.812;-122.286;2023-04-24T03:38:01;15.35;;;4.03;;
72882;SDS011;61017;37.812;-122.286;2023-04-24T03:39:33;17.25;;;3.40;;
72882;SDS011;61017;37.812;-122.286;2023-04-24T03:41:08;8.88;;;3.30;;
72882;SDS011;61017;37.812;-122.286;2023-04-24T03:42:39;12.60;;;3.50;;
72882;SDS011;61017;37.812;-122.286;2023-04-24T03:44:11;13.15;;;3.72;;
72882;SDS011;61017;37.812;-122.286;2023-04-24T03:45:43;13.85;;;3.70;;
72882;SDS011;61017;37.812;-122.286;2023-04-24T03:47:14;13.27;;;3.20;;
72882;SDS011;61017;37.812;-122.286;2023-04-24T03:48:46;10.68;;;3.03;;
72882;SDS011;61017;37.812;-122.286;2023-04-24T03:50:18;9.15;;;3.10;;
72882;SDS011;61017;37.812;-122.286;2023-04-24T03:51:49;11.88;;;3.30;;
72882;SDS011;61017;37.812;-122.286;2023-04-24T03:53:21;11.73;;;3.22;;
72882;SDS011;61017;37.812;-122.286;2023-04-24T03:54:52;13.73;;;3.35;;
72882;SDS011;61017;37.812;-122.286;2023-04-24T03:56:24;12.10;;;3.60;;
72882;SDS011;61017;37.812;-122.286;2023-04-24T03:57:56;12.90;;;3.20;;
72882;SDS011;61017;37.812;-122.286;2023-04-24T03:59:28;15.25;;;3.40;;
72882;SDS011;61017;37.812;-122.286;2023-04-24T04:01:00;10.35;;;3.20;;
72882;SDS011;61017;37.812;-122.286;2023-04-24T04:02:31;13.43;;;3.40;;
72882;SDS011;61017;37.812;-122.286;2023-04-24T04:04:03;14.52;;;3.65;;
72882;SDS011;61017;37.812;-122.286;2023-04-24T04:05:35;15.23;;;3.65;;
72882;SDS011;61017;37.812;-122.286;2023-04-24T04:07:06;12.63;;;3.30;;
72882;SDS011;61017;37.812;-122.286;2023-04-24T04:08:38;15.63;;;3.20;;
72882;SDS011;61017;37.812;-122.286;2023-04-24T04:10:10;12.25;;;3.47;;
72882;SDS011;61017;37.812;-122.286;2023-04-24T04:11:41;10.98;;;3.30;;
72882;SDS011;61017;37.812;-122.286;2023-04-24T04:13:13;15.15;;;3.85;;
72882;SDS011;61017;37.812;-122.286;2023-04-24T04:14:44;13.38;;;3.33;;
72882;SDS011;61017;37.812;-122.286;2023-04-24T04:16:16;12.88;;;3.17;;
72882;SDS011;61017;37.812;-122.286;2023-04-24T04:17:48;14.18;;;3.70;;
72882;SDS011;61017;37.812;-122.286;2023-04-24T04:19:19;13.95;;;3.70;;
72882;SDS011;61017;37.812;-122.286;2023-04-24T04:20:51;12.95;;;3.30;;
72882;SDS011;61017;37.812;-122.286;2023-04-24T04:22:22;13.25;;;3.45;;
72882;SDS011;61017;37.812;-122.286;2023-04-24T04:23:54;13.13;;;3.38;;
72882;SDS011;61017;37.812;-122.286;2023-04-24T04:25:26;13.27;;;3.58;;
72882;SDS011;61017;37.812;-122.286;2023-04-24T04:26:57;11.77;;;3.90;;
72882;SDS011;61017;37.812;-122.286;2023-04-24T04:28:29;11.20;;;3.15;;
72882;SDS011;61017;37.812;-122.286;2023-04-24T04:30:01;12.50;;;3.50;;
72882;SDS011;61017;37.812;-122.286;2023-04-24T04:31:33;11.82;;;3.63;;
72882;SDS011;61017;37.812;-122.286;2023-04-24T04:33:05;12.80;;;3.53;;
72882;SDS011;61017;37.812;-122.286;2023-04-24T04:34:37;12.77;;;3.42;;
72882;SDS011;61017;37.812;-122.286;2023-04-24T04:36:08;14.23;;;3.50;;
72882;SDS011;61017;37.812;-122.286;2023-04-24T04:37:40;15.20;;;3.65;;
72882;SDS011;61017;37.812;-122.286;2023-04-24T04:39:11;13.15;;;3.70;;
72882;SDS011;61017;37.812;-122.286;2023-04-24T04:40:46;12.30;;;3.50;;
72882;SDS011;61017;37.812;-122.286;2023-04-24T04:42:17;14.40;;;3.83;;
72882;SDS011;61017;37.812;-122.286;2023-04-24T04:43:49;14.13;;;3.75;;
72882;SDS011;61017;37.812;-122.286;2023-04-24T04:45:21;11.45;;;3.53;;
72882;SDS011;61017;37.812;-122.286;2023-04-24T04:46:52;14.48;;;3.15;;
72882;SDS011;61017;37.812;-122.286;2023-04-24T04:48:24;16.20;;;3.88;;
72882;SDS011;61017;37.812;-122.286;2023-04-24T04:49:56;13.70;;;3.60;;
72882;SDS011;61017;37.812;-122.286;2023-04-24T04:51:27;14.27;;;3.80;;
72882;SDS011;61017;37.812;-122.286;2023-04-24T04:52:59;10.73;;;3.23;;
72882;SDS011;61017;37.812;-122.286;2023-04-24T04:54:31;15.73;;;4.05;;
72882;SDS011;61017;37.812;-122.286;2023-04-24T04:56:03;12.50;;;3.30;;
72882;SDS011;61017;37.812;-122.286;2023-04-24T04:57:34;14.80;;;3.63;;
72882;SDS011;61017;37.812;-122.286;2023-04-24T04:59:06;11.35;;;3.45;;
72882;SDS011;61017;37.812;-122.286;2023-04-24T05:00:38;13.05;;;3.85;;
72882;SDS011;61017;37.812;-122.286;2023-04-24T05:02:09;13.73;;;3.80;;
72882;SDS011;61017;37.812;-122.286;2023-04-24T05:03:41;14.02;;;3.67;;
72882;SDS011;61017;37.812;-122.286;2023-04-24T05:05:13;13.90;;;3.88;;
72882;SDS011;61017;37.812;-122.286;2023-04-24T05:06:44;13.68;;;3.70;;
72882;SDS011;61017;37.812;-122.286;2023-04-24T05:08:16;15.52;;;3.33;;
72882;SDS011;61017;37.812;-122.286;2023-04-24T05:09:47;13.18;;;3.70;;
72882;SDS011;61017;37.812;-122.286;2023-04-24T05:11:19;13.40;;;3.42;;
72882;SDS011;61017;37.812;-122.286;2023-04-24T05:12:51;14.95;;;3.65;;
72882;SDS011;61017;37.812;-122.286;2023-04-24T05:14:22;14.60;;;3.55;;
72882;SDS011;61017;37.812;-122.286;2023-04-24T05:15:54;19.48;;;4.57;;
72882;SDS011;61017;37.812;-122.286;2023-04-24T05:17:25;15.98;;;3.90;;
72882;SDS011;61017;37.812;-122.286;2023-04-24T05:18:57;16.55;;;3.60;;
72882;SDS011;61017;37.812;-122.286;2023-04-24T05:20:28;14.80;;;4.15;;
72882;SDS011;61017;37.812;-122.286;2023-04-24T05:22:00;14.73;;;3.78;;
72882;SDS011;61017;37.812;-122.286;2023-04-24T05:23:32;14.90;;;3.80;;
72882;SDS011;61017;37.812;-122.286;2023-04-24T05:25:03;14.32;;;3.50;;
72882;SDS011;61017;37.812;-122.286;2023-04-24T05:26:35;17.25;;;4.32;;
72882;SDS011;61017;37.812;-122.286;2023-04-24T05:28:07;16.17;;;3.83;;
72882;SDS011;61017;37.812;-122.286;2023-04-24T05:29:38;13.57;;;3.70;;
72882;SDS011;61017;37.812;-122.286;2023-04-24T05:31:10;14.00;;;3.47;;
72882;SDS011;61017;37.812;-122.286;2023-04-24T05:32:42;15.85;;;3.88;;
72882;SDS011;61017;37.812;-122.286;2023-04-24T05:34:14;14.23;;;4.32;;
72882;SDS011;61017;37.812;-122.286;2023-04-24T05:35:45;17.00;;;4.57;;
72882;SDS011;61017;37.812;-122.286;2023-04-24T05:37:17;16.30;;;4.30;;
72882;SDS011;61017;37.812;-122.286;2023-04-24T05:38:48;17.90;;;4.30;;
72882;SDS011;61017;37.812;-122.286;2023-04-24T05:40:20;16.45;;;4.13;;
72882;SDS011;61017;37.812;-122.286;2023-04-24T05:41:52;15.60;;;4.35;;
72882;SDS011;61017;37.812;-122.286;2023-04-24T05:43:23;17.15;;;4.32;;
72882;SDS011;61017;37.812;-122.286;2023-04-24T05:44:55;15.27;;;3.92;;
72882;SDS011;61017;37.812;-122.286;2023-04-24T05:46:26;14.68;;;4.03;;
72882;SDS011;61017;37.812;-122.286;2023-04-24T05:47:58;14.13;;;3.92;;
72882;SDS011;61017;37.812;-122.286;2023-04-24T05:49:30;17.15;;;4.28;;
72882;SDS011;61017;37.812;-122.286;2023-04-24T05:51:01;16.10;;;4.35;;
72882;SDS011;61017;37.812;-122.286;2023-04-24T05:52:33;18.73;;;4.30;;
72882;SDS011;61017;37.812;-122.286;2023-04-24T05:54:04;15.13;;;4.32;;
72882;SDS011;61017;37.812;-122.286;2023-04-24T05:55:36;18.52;;;4.28;;
72882;SDS011;61017;37.812;-122.286;2023-04-24T05:57:08;18.08;;;4.22;;
72882;SDS011;61017;37.812;-122.286;2023-04-24T05:58:39;15.90;;;4.13;;
72882;SDS011;61017;37.812;-122.286;2023-04-24T06:00:11;16.55;;;4.30;;
72882;SDS011;61017;37.812;-122.286;2023-04-24T06:01:43;14.48;;;4.15;;
72882;SDS011;61017;37.812;-122.286;2023-04-24T06:03:15;14.65;;;4.13;;
72882;SDS011;61017;37.812;-122.286;2023-04-24T06:04:46;14.82;;;4.30;;
72882;SDS011;61017;37.812;-122.286;2023-04-24T06:06:18;17.92;;;4.25;;
72882;SDS011;61017;37.812;-122.286;2023-04-24T06:07:51;18.35;;;4.45;;
72882;SDS011;61017;37.812;-122.286;2023-04-24T06:09:22;17.17;;;4.63;;
72882;SDS011;61017;37.812;-122.286;2023-04-24T06:10:54;19.25;;;4.30;;
72882;SDS011;61017;37.812;-122.286;2023-04-24T06:12:26;21.63;;;4.95;;
72882;SDS011;61017;37.812;-122.286;2023-04-24T06:13:58;19.42;;;4.57;;
72882;SDS011;61017;37.812;-122.286;2023-04-24T06:15:30;19.85;;;4.72;;
72882;SDS011;61017;37.812;-122.286;2023-04-24T06:17:01;16.25;;;3.85;;
72882;SDS011;61017;37.812;-122.286;2023-04-24T06:18:33;15.65;;;4.55;;
72882;SDS011;61017;37.812;-122.286;2023-04-24T06:20:05;21.55;;;4.72;;
72882;SDS011;61017;37.812;-122.286;2023-04-24T06:21:40;16.33;;;4.50;;
72882;SDS011;61017;37.812;-122.286;2023-04-24T06:23:12;15.63;;;4.53;;
72882;SDS011;61017;37.812;-122.286;2023-04-24T06:24:44;20.27;;;4.80;;
72882;SDS011;61017;37.812;-122.286;2023-04-24T06:26:15;20.23;;;4.95;;
72882;SDS011;61017;37.812;-122.286;2023-04-24T06:27:47;18.10;;;4.17;;
72882;SDS011;61017;37.812;-122.286;2023-04-24T06:29:19;18.30;;;4.28;;
72882;SDS011;61017;37.812;-122.286;2023-04-24T06:30:51;17.90;;;4.50;;
72882;SDS011;61017;37.812;-122.286;2023-04-24T06:32:23;16.63;;;4.57;;
72882;SDS011;61017;37.812;-122.286;2023-04-24T06:33:55;17.15;;;4.65;;
72882;SDS011;61017;37.812;-122.286;2023-04-24T06:35:26;17.13;;;4.30;;
72882;SDS011;61017;37.812;-122.286;2023-04-24T06:36:58;19.92;;;5.03;;
72882;SDS011;61017;37.812;-122.286;2023-04-24T06:38:30;16.42;;;4.65;;
72882;SDS011;61017;37.812;-122.286;2023-04-24T06:40:01;19.40;;;4.88;;
72882;SDS011;61017;37.812;-122.286;2023-04-24T06:41:33;18.65;;;5.00;;
72882;SDS011;61017;37.812;-122.286;2023-04-24T06:43:05;20.48;;;5.20;;
72882;SDS011;61017;37.812;-122.286;2023-04-24T06:44:37;18.10;;;4.80;;
72882;SDS011;61017;37.812;-122.286;2023-04-24T06:46:08;21.95;;;4.63;;
72882;SDS011;61017;37.812;-122.286;2023-04-24T06:47:40;17.05;;;4.88;;
72882;SDS011;61017;37.812;-122.286;2023-04-24T06:49:12;19.73;;;4.45;;
72882;SDS011;61017;37.812;-122.286;2023-04-24T06:50:43;19.20;;;4.80;;
72882;SDS011;61017;37.812;-122.286;2023-04-24T06:52:15;20.48;;;5.18;;
72882;SDS011;61017;37.812;-122.286;2023-04-24T06:53:46;19.85;;;4.80;;
72882;SDS011;61017;37.812;-122.286;2023-04-24T06:55:18;23.10;;;4.85;;
72882;SDS011;61017;37.812;-122.286;2023-04-24T06:56:50;19.67;;;4.65;;
72882;SDS011;61017;37.812;-122.286;2023-04-24T06:58:21;18.70;;;4.50;;
72882;SDS011;61017;37.812;-122.286;2023-04-24T06:59:53;20.20;;;4.80;;
72882;SDS011;61017;37.812;-122.286;2023-04-24T07:01:25;14.77;;;4.13;;
72882;SDS011;61017;37.812;-122.286;2023-04-24T07:02:56;21.05;;;4.75;;
72882;SDS011;61017;37.812;-122.286;2023-04-24T07:04:28;21.95;;;4.88;;
72882;SDS011;61017;37.812;-122.286;2023-04-24T07:06:00;19.88;;;5.05;;
72882;SDS011;61017;37.812;-122.286;2023-04-24T07:07:32;18.15;;;4.35;;
72882;SDS011;61017;37.812;-122.286;2023-04-24T07:09:03;21.65;;;4.80;;
72882;SDS011;61017;37.812;-122.286;2023-04-24T07:10:35;16.40;;;4.68;;
72882;SDS011;61017;37.812;-122.286;2023-04-24T07:12:09;19.40;;;4.60;;
72882;SDS011;61017;37.812;-122.286;2023-04-24T07:13:41;19.52;;;5.15;;
72882;SDS011;61017;37.812;-122.286;2023-04-24T07:15:13;18.17;;;4.85;;
72882;SDS011;61017;37.812;-122.286;2023-04-24T07:16:44;19.13;;;5.13;;
72882;SDS011;61017;37.812;-122.286;2023-04-24T07:18:16;16.83;;;4.65;;
72882;SDS011;61017;37.812;-122.286;2023-04-24T07:19:48;19.67;;;4.90;;
72882;SDS011;61017;37.812;-122.286;2023-04-24T07:21:19;19.77;;;4.75;;
72882;SDS011;61017;37.812;-122.286;2023-04-24T07:22:51;21.15;;;4.85;;
72882;SDS011;61017;37.812;-122.286;2023-04-24T07:24:23;20.40;;;4.93;;
72882;SDS011;61017;37.812;-122.286;2023-04-24T07:25:55;18.23;;;4.67;;
72882;SDS011;61017;37.812;-122.286;2023-04-24T07:27:26;18.42;;;4.57;;
72882;SDS011;61017;37.812;-122.286;2023-04-24T07:28:58;17.13;;;4.60;;
72882;SDS011;61017;37.812;-122.286;2023-04-24T07:30:30;22.05;;;5.30;;
72882;SDS011;61017;37.812;-122.286;2023-04-24T07:32:02;17.63;;;4.72;;
72882;SDS011;61017;37.812;-122.286;2023-04-24T07:33:34;17.88;;;4.32;;
72882;SDS011;61017;37.812;-122.286;2023-04-24T07:35:06;16.52;;;4.60;;
72882;SDS011;61017;37.812;-122.286;2023-04-24T07:36:37;17.73;;;4.43;;
72882;SDS011;61017;37.812;-122.286;2023-04-24T07:38:09;18.30;;;4.72;;
72882;SDS011;61017;37.812;-122.286;2023-04-24T07:39:41;18.08;;;4.57;;
72882;SDS011;61017;37.812;-122.286;2023-04-24T07:41:13;19.48;;;4.60;;
72882;SDS011;61017;37.812;-122.286;2023-04-24T07:42:44;15.17;;;4.50;;
72882;SDS011;61017;37.812;-122.286;2023-04-24T07:44:16;18.48;;;4.65;;
72882;SDS011;61017;37.812;-122.286;2023-04-24T07:45:48;17.88;;;4.40;;
72882;SDS011;61017;37.812;-122.286;2023-04-24T07:47:22;19.20;;;4.45;;
72882;SDS011;61017;37.812;-122.286;2023-04-24T07:48:54;17.95;;;4.75;;
72882;SDS011;61017;37.812;-122.286;2023-04-24T07:50:25;18.13;;;4.57;;
72882;SDS011;61017;37.812;-122.286;2023-04-24T07:51:57;23.10;;;5.00;;
72882;SDS011;61017;37.812;-122.286;2023-04-24T07:53:29;19.20;;;4.90;;
72882;SDS011;61017;37.812;-122.286;2023-04-24T07:55:00;21.50;;;4.95;;
72882;SDS011;61017;37.812;-122.286;2023-04-24T07:56:33;21.40;;;4.70;;
72882;SDS011;61017;37.812;-122.286;2023-04-24T07:58:04;19.02;;;4.60;;
72882;SDS011;61017;37.812;-122.286;2023-04-24T07:59:36;20.35;;;4.75;;
72882;SDS011;61017;37.812;-122.286;2023-04-24T08:01:07;20.55;;;4.45;;
72882;SDS011;61017;37.812;-122.286;2023-04-24T08:02:39;20.70;;;5.05;;
72882;SDS011;61017;37.812;-122.286;2023-04-24T08:04:11;19.33;;;4.85;;
72882;SDS011;61017;37.812;-122.286;2023-04-24T08:05:42;21.70;;;5.20;;
72882;SDS011;61017;37.812;-122.286;2023-04-24T08:07:14;16.77;;;4.80;;
72882;SDS011;61017;37.812;-122.286;2023-04-24T08:08:46;17.80;;;4.40;;
72882;SDS011;61017;37.812;-122.286;2023-04-24T08:10:18;20.70;;;4.75;;
72882;SDS011;61017;37.812;-122.286;2023-04-24T08:11:49;19.85;;;5.32;;
72882;SDS011;61017;37.812;-122.286;2023-04-24T08:13:21;18.83;;;4.78;;
72882;SDS011;61017;37.812;-122.286;2023-04-24T08:14:52;16.23;;;4.47;;
72882;SDS011;61017;37.812;-122.286;2023-04-24T08:16:24;17.73;;;4.72;;
72882;SDS011;61017;37.812;-122.286;2023-04-24T08:17:56;19.20;;;4.93;;
72882;SDS011;61017;37.812;-122.286;2023-04-24T08:19:28;18.95;;;5.05;;
72882;SDS011;61017;37.812;-122.286;2023-04-24T08:21:00;17.17;;;4.55;;
72882;SDS011;61017;37.812;-122.286;2023-04-24T08:22:31;17.60;;;4.82;;
72882;SDS011;61017;37.812;-122.286;2023-04-24T08:24:03;19.92;;;4.93;;
72882;SDS011;61017;37.812;-122.286;2023-04-24T08:25:35;19.02;;;5.10;;
72882;SDS011;61017;37.812;-122.286;2023-04-24T08:27:07;21.30;;;4.93;;
72882;SDS011;61017;37.812;-122.286;2023-04-24T08:28:39;18.40;;;4.85;;
72882;SDS011;61017;37.812;-122.286;2023-04-24T08:30:11;16.60;;;4.63;;
72882;SDS011;61017;37.812;-122.286;2023-04-24T08:31:42;17.90;;;4.57;;
72882;SDS011;61017;37.812;-122.286;2023-04-24T08:33:14;16.58;;;4.70;;
72882;SDS011;61017;37.812;-122.286;2023-04-24T08:34:46;20.08;;;5.10;;
72882;SDS011;61017;37.812;-122.286;2023-04-24T08:36:17;18.58;;;4.68;;
72882;SDS011;61017;37.812;-122.286;2023-04-24T08:37:49;17.45;;;4.68;;
72882;SDS011;61017;37.812;-122.286;2023-04-24T08:39:21;19.70;;;5.10;;
72882;SDS011;61017;37.812;-122.286;2023-04-24T08:40:52;18.90;;;4.72;;
72882;SDS011;61017;37.812;-122.286;2023-04-24T08:42:25;20.52;;;5.47;;